sensor_id;sensor_type;location;lat;lon;timestamp;temperature;humidity
20881;DHT22;10600;53.096;8.802;2023-04-01T00:00:26;10.40;99.90
20881;DHT22;10600;53.096;8.802;2023-04-01T00:01:27;10.40;99.90
20881;DHT22;10600;53.096;8.802;2023-04-01T00:02:28;10.40;99.90
20881;DHT22;10600;53.096;8.802;2023-04-01T00:03:29;10.40;99.90
20881;DHT22;10600;53.096;8.802;2023-04-01T00:04:29;10.40;99.90
20881;DHT22;10600;53.096;8.802;2023-04-01T00:05:30;10.40;99.90
20881;DHT22;10600;53.096;8.802;2023-04-01T00:06:31;10.40;99.90
20881;DHT22;10600;53.096;8.802;2023-04-01T00:07:31;10.40;99.90
20881;DHT22;10600;53.096;8.802;2023-04-01T00:08:33;10.40;99.90
20881;DHT22;10600;53.096;8.802;2023-04-01T00:09:34;10.40;99.90
20881;DHT22;10600;53.096;8.802;2023-04-01T00:10:35;10.40;99.90
20881;DHT22;10600;53.096;8.802;2023-04-01T00:11:36;10.40;99.90
20881;DHT22;10600;53.096;8.802;2023-04-01T00:12:37;10.40;99.90
20881;DHT22;10600;53.096;8.802;2023-04-01T00:13:38;10.40;99.90
20881;DHT22;10600;53.096;8.802;2023-04-01T00:14:39;10.40;99.90
20881;DHT22;10600;53.096;8.802;2023-04-01T00:15:40;10.40;99.90
20881;DHT22;10600;53.096;8.802;2023-04-01T00:16:41;10.40;99.90
20881;DHT22;10600;53.096;8.802;2023-04-01T00:17:42;10.40;99.90
20881;DHT22;10600;53.096;8.802;2023-04-01T00:18:42;10.40;99.90
20881;DHT22;10600;53.096;8.802;2023-04-01T00:19:43;10.40;99.90
20881;DHT22;10600;53.096;8.802;2023-04-01T00:20:49;10.40;99.90
20881;DHT22;10600;53.096;8.802;2023-04-01T00:21:50;10.40;99.90
20881;DHT22;10600;53.096;8.802;2023-04-01T00:22:52;10.40;99.90
20881;DHT22;10600;53.096;8.802;2023-04-01T00:23:53;10.40;99.90
20881;DHT22;10600;53.096;8.802;2023-04-01T00:24:53;10.40;99.90
20881;DHT22;10600;53.096;8.802;2023-04-01T00:25:54;10.40;99.90
20881;DHT22;10600;53.096;8.802;2023-04-01T00:26:55;10.40;99.90
20881;DHT22;10600;53.096;8.802;2023-04-01T00:27:55;10.40;99.90
20881;DHT22;10600;53.096;8.802;2023-04-01T00:28:56;10.30;99.90
20881;DHT22;10600;53.096;8.802;2023-04-01T00:29:57;10.40;99.90
20881;DHT22;10600;53.096;8.802;2023-04-01T00:30:57;10.30;99.90
20881;DHT22;10600;53.096;8.802;2023-04-01T00:31:58;10.30;99.90
20881;DHT22;10600;53.096;8.802;2023-04-01T00:32:59;10.30;99.90
20881;DHT22;10600;53.096;8.802;2023-04-01T00:33:59;10.40;99.90
20881;DHT22;10600;53.096;8.802;2023-04-01T00:35:00;10.30;99.90
20881;DHT22;10600;53.096;8.802;2023-04-01T00:36:09;10.30;99.90
20881;DHT22;10600;53.096;8.802;2023-04-01T00:37:10;10.30;99.90
20881;DHT22;10600;53.096;8.802;2023-04-01T00:38:12;10.30;99.90
20881;DHT22;10600;53.096;8.802;2023-04-01T00:39:13;10.30;99.90
20881;DHT22;10600;53.096;8.802;2023-04-01T00:40:28;10.30;99.90
20881;DHT22;10600;53.096;8.802;2023-04-01T00:41:29;10.30;99.90
20881;DHT22;10600;53.096;8.802;2023-04-01T00:42:30;10.40;99.90
20881;DHT22;10600;53.096;8.802;2023-04-01T00:43:31;10.30;99.90
20881;DHT22;10600;53.096;8.802;2023-04-01T00:44:33;10.40;99.90
20881;DHT22;10600;53.096;8.802;2023-04-01T00:45:40;10.40;99.90
20881;DHT22;10600;53.096;8.802;2023-04-01T00:46:41;10.40;99.90
20881;DHT22;10600;53.096;8.802;2023-04-01T00:47:41;10.40;99.90
20881;DHT22;10600;53.096;8.802;2023-04-01T00:48:47;10.40;99.90
20881;DHT22;10600;53.096;8.802;2023-04-01T00:49:50;10.40;99.90
20881;DHT22;10600;53.096;8.802;2023-04-01T00:51:11;10.40;99.90
20881;DHT22;10600;53.096;8.802;2023-04-01T00:52:17;10.40;99.90
20881;DHT22;10600;53.096;8.802;2023-04-01T00:53:19;10.40;99.90
20881;DHT22;10600;53.096;8.802;2023-04-01T00:54:21;10.40;99.90
20881;DHT22;10600;53.096;8.802;2023-04-01T00:55:23;10.40;99.90
20881;DHT22;10600;53.096;8.802;2023-04-01T00:56:39;10.40;99.90
20881;DHT22;10600;53.096;8.802;2023-04-01T00:57:42;10.40;99.90
20881;DHT22;10600;53.096;8.802;2023-04-01T00:58:47;10.40;99.90
20881;DHT22;10600;53.096;8.802;2023-04-01T00:59:52;10.40;99.90
20881;DHT22;10600;53.096;8.802;2023-04-01T01:00:55;10.40;99.90
20881;DHT22;10600;53.096;8.802;2023-04-01T01:01:56;10.40;99.90
20881;DHT22;10600;53.096;8.802;2023-04-01T01:02:57;10.40;99.90
20881;DHT22;10600;53.096;8.802;2023-04-01T01:03:58;10.40;99.90
20881;DHT22;10600;53.096;8.802;2023-04-01T01:05:00;10.40;99.90
20881;DHT22;10600;53.096;8.802;2023-04-01T01:07:56;10.40;99.90
20881;DHT22;10600;53.096;8.802;2023-04-01T01:10:29;10.40;99.90
20881;DHT22;10600;53.096;8.802;2023-04-01T01:11:37;10.40;99.90
20881;DHT22;10600;53.096;8.802;2023-04-01T01:14:19;10.40;99.90
20881;DHT22;10600;53.096;8.802;2023-04-01T01:15:31;10.40;99.90
20881;DHT22;10600;53.096;8.802;2023-04-01T01:16:38;10.40;99.90
20881;DHT22;10600;53.096;8.802;2023-04-01T01:17:53;10.40;99.90
20881;DHT22;10600;53.096;8.802;2023-04-01T01:20:18;10.40;99.90
20881;DHT22;10600;53.096;8.802;2023-04-01T01:21:46;10.40;99.90
20881;DHT22;10600;53.096;8.802;2023-04-01T01:29:40;10.40;99.90
20881;DHT22;10600;53.096;8.802;2023-04-01T01:31:20;10.40;99.90
20881;DHT22;10600;53.096;8.802;2023-04-01T01:35:22;10.40;99.90
20881;DHT22;10600;53.096;8.802;2023-04-01T01:36:28;10.40;99.90
20881;DHT22;10600;53.096;8.802;2023-04-01T01:37:31;10.40;99.90
20881;DHT22;10600;53.096;8.802;2023-04-01T01:38:34;10.40;99.90
20881;DHT22;10600;53.096;8.802;2023-04-01T01:39:36;10.40;99.90
20881;DHT22;10600;53.096;8.802;2023-04-01T01:40:40;10.40;99.90
20881;DHT22;10600;53.096;8.802;2023-04-01T01:41:42;10.40;99.90
20881;DHT22;10600;53.096;8.802;2023-04-01T01:42:48;10.40;99.90
20881;DHT22;10600;53.096;8.802;2023-04-01T01:43:51;10.40;99.90
20881;DHT22;10600;53.096;8.802;2023-04-01T01:44:55;10.40;99.90
20881;DHT22;10600;53.096;8.802;2023-04-01T01:46:01;10.40;99.90
20881;DHT22;10600;53.096;8.802;2023-04-01T01:47:03;10.40;99.90
20881;DHT22;10600;53.096;8.802;2023-04-01T01:48:05;10.40;99.90
20881;DHT22;10600;53.096;8.802;2023-04-01T01:49:10;10.40;99.90
20881;DHT22;10600;53.096;8.802;2023-04-01T01:50:12;10.40;99.90
20881;DHT22;10600;53.096;8.802;2023-04-01T01:51:14;10.40;99.90
20881;DHT22;10600;53.096;8.802;2023-04-01T01:52:17;10.40;99.90
20881;DHT22;10600;53.096;8.802;2023-04-01T01:53:18;10.40;99.90
20881;DHT22;10600;53.096;8.802;2023-04-01T01:54:19;10.40;99.90
20881;DHT22;10600;53.096;8.802;2023-04-01T01:55:34;10.40;99.90
20881;DHT22;10600;53.096;8.802;2023-04-01T01:56:36;10.40;99.90
20881;DHT22;10600;53.096;8.802;2023-04-01T01:57:38;10.40;99.90
20881;DHT22;10600;53.096;8.802;2023-04-01T01:58:46;10.40;99.90
20881;DHT22;10600;53.096;8.802;2023-04-01T01:59:48;10.40;99.90
20881;DHT22;10600;53.096;8.802;2023-04-01T02:01:03;10.40;99.90
20881;DHT22;10600;53.096;8.802;2023-04-01T02:02:06;10.40;99.90
20881;DHT22;10600;53.096;8.802;2023-04-01T02:03:08;10.40;99.90
20881;DHT22;10600;53.096;8.802;2023-04-01T02:04:10;10.40;99.90
20881;DHT22;10600;53.096;8.802;2023-04-01T02:05:19;10.40;99.90
20881;DHT22;10600;53.096;8.802;2023-04-01T02:06:26;10.40;99.90
20881;DHT22;10600;53.096;8.802;2023-04-01T02:07:31;10.40;99.90
20881;DHT22;10600;53.096;8.802;2023-04-01T02:08:55;10.40;99.90
20881;DHT22;10600;53.096;8.802;2023-04-01T02:09:57;10.40;99.90
20881;DHT22;10600;53.096;8.802;2023-04-01T02:11:07;10.40;99.90
20881;DHT22;10600;53.096;8.802;2023-04-01T02:12:11;10.40;99.90
20881;DHT22;10600;53.096;8.802;2023-04-01T02:13:18;10.40;99.90
20881;DHT22;10600;53.096;8.802;2023-04-01T02:15:58;10.40;99.90
20881;DHT22;10600;53.096;8.802;2023-04-01T02:17:06;10.40;99.90
20881;DHT22;10600;53.096;8.802;2023-04-01T02:18:08;10.40;99.90
20881;DHT22;10600;53.096;8.802;2023-04-01T02:19:10;10.40;99.90
20881;DHT22;10600;53.096;8.802;2023-04-01T02:20:15;10.30;99.90
20881;DHT22;10600;53.096;8.802;2023-04-01T02:21:20;10.30;99.90
20881;DHT22;10600;53.096;8.802;2023-04-01T02:22:26;10.40;99.90
20881;DHT22;10600;53.096;8.802;2023-04-01T02:23:28;10.40;99.90
20881;DHT22;10600;53.096;8.802;2023-04-01T02:24:31;10.40;99.90
20881;DHT22;10600;53.096;8.802;2023-04-01T02:25:35;10.40;99.90
20881;DHT22;10600;53.096;8.802;2023-04-01T02:26:36;10.30;99.90
20881;DHT22;10600;53.096;8.802;2023-04-01T02:27:38;10.30;99.90
20881;DHT22;10600;53.096;8.802;2023-04-01T02:28:41;10.30;99.90
20881;DHT22;10600;53.096;8.802;2023-04-01T02:29:43;10.30;99.90
20881;DHT22;10600;53.096;8.802;2023-04-01T02:30:44;10.30;99.90
20881;DHT22;10600;53.096;8.802;2023-04-01T02:31:46;10.40;99.90
20881;DHT22;10600;53.096;8.802;2023-04-01T02:32:47;10.30;99.90
20881;DHT22;10600;53.096;8.802;2023-04-01T02:33:48;10.40;99.90
20881;DHT22;10600;53.096;8.802;2023-04-01T02:34:49;10.40;99.90
20881;DHT22;10600;53.096;8.802;2023-04-01T02:35:50;10.30;99.90
20881;DHT22;10600;53.096;8.802;2023-04-01T02:36:51;10.30;99.90
20881;DHT22;10600;53.096;8.802;2023-04-01T02:37:55;10.30;99.90
20881;DHT22;10600;53.096;8.802;2023-04-01T02:38:56;10.30;99.90
20881;DHT22;10600;53.096;8.802;2023-04-01T02:40:03;10.30;99.90
20881;DHT22;10600;53.096;8.802;2023-04-01T02:41:05;10.30;99.90
20881;DHT22;10600;53.096;8.802;2023-04-01T02:42:06;10.30;99.90
20881;DHT22;10600;53.096;8.802;2023-04-01T02:43:07;10.30;99.90
20881;DHT22;10600;53.096;8.802;2023-04-01T02:44:08;10.30;99.90
20881;DHT22;10600;53.096;8.802;2023-04-01T02:45:10;10.30;99.90
20881;DHT22;10600;53.096;8.802;2023-04-01T02:46:11;10.30;99.90
20881;DHT22;10600;53.096;8.802;2023-04-01T02:47:11;10.30;99.90
20881;DHT22;10600;53.096;8.802;2023-04-01T02:48:12;10.30;99.90
20881;DHT22;10600;53.096;8.802;2023-04-01T02:49:14;10.30;99.90
20881;DHT22;10600;53.096;8.802;2023-04-01T02:50:15;10.30;99.90
20881;DHT22;10600;53.096;8.802;2023-04-01T02:51:15;10.30;99.90
20881;DHT22;10600;53.096;8.802;2023-04-01T02:52:16;10.30;99.90
20881;DHT22;10600;53.096;8.802;2023-04-01T02:53:17;10.30;99.90
20881;DHT22;10600;53.096;8.802;2023-04-01T02:54:18;10.30;99.90
20881;DHT22;10600;53.096;8.802;2023-04-01T02:55:19;10.30;99.90
20881;DHT22;10600;53.096;8.802;2023-04-01T02:56:20;10.30;99.90
20881;DHT22;10600;53.096;8.802;2023-04-01T02:57:21;10.30;99.90
20881;DHT22;10600;53.096;8.802;2023-04-01T02:58:22;10.30;99.90
20881;DHT22;10600;53.096;8.802;2023-04-01T02:59:23;10.30;99.90
20881;DHT22;10600;53.096;8.802;2023-04-01T03:00:24;10.30;99.90
20881;DHT22;10600;53.096;8.802;2023-04-01T03:01:25;10.30;99.90
20881;DHT22;10600;53.096;8.802;2023-04-01T03:02:25;10.30;99.90
20881;DHT22;10600;53.096;8.802;2023-04-01T03:03:26;10.20;99.90
20881;DHT22;10600;53.096;8.802;2023-04-01T03:04:27;10.20;99.90
20881;DHT22;10600;53.096;8.802;2023-04-01T03:05:27;10.30;99.90
20881;DHT22;10600;53.096;8.802;2023-04-01T03:06:28;10.30;99.90
20881;DHT22;10600;53.096;8.802;2023-04-01T03:07:29;10.20;99.90
20881;DHT22;10600;53.096;8.802;2023-04-01T03:08:29;10.20;99.90
20881;DHT22;10600;53.096;8.802;2023-04-01T03:09:30;10.20;99.90
20881;DHT22;10600;53.096;8.802;2023-04-01T03:10:30;10.20;99.90
20881;DHT22;10600;53.096;8.802;2023-04-01T03:11:31;10.20;99.90
20881;DHT22;10600;53.096;8.802;2023-04-01T03:12:32;10.20;99.90
20881;DHT22;10600;53.096;8.802;2023-04-01T03:13:33;10.20;99.90
20881;DHT22;10600;53.096;8.802;2023-04-01T03:14:33;10.20;99.90
20881;DHT22;10600;53.096;8.802;2023-04-01T03:15:34;10.20;99.90
20881;DHT22;10600;53.096;8.802;2023-04-01T03:16:34;10.20;99.90
20881;DHT22;10600;53.096;8.802;2023-04-01T03:17:35;10.20;99.90
20881;DHT22;10600;53.096;8.802;2023-04-01T03:18:36;10.20;99.90
20881;DHT22;10600;53.096;8.802;2023-04-01T03:19:36;10.20;99.90
20881;DHT22;10600;53.096;8.802;2023-04-01T03:20:37;10.20;99.90
20881;DHT22;10600;53.096;8.802;2023-04-01T03:21:37;10.20;99.90
20881;DHT22;10600;53.096;8.802;2023-04-01T03:22:38;10.20;99.90
20881;DHT22;10600;53.096;8.802;2023-04-01T03:23:39;10.20;99.90
20881;DHT22;10600;53.096;8.802;2023-04-01T03:24:40;10.20;99.90
20881;DHT22;10600;53.096;8.802;2023-04-01T03:25:41;10.20;99.90
20881;DHT22;10600;53.096;8.802;2023-04-01T03:26:41;10.20;99.90
20881;DHT22;10600;53.096;8.802;2023-04-01T03:27:42;10.20;99.90
20881;DHT22;10600;53.096;8.802;2023-04-01T03:28:43;10.20;99.90
20881;DHT22;10600;53.096;8.802;2023-04-01T03:29:43;10.20;99.90
20881;DHT22;10600;53.096;8.802;2023-04-01T03:30:44;10.20;99.90
20881;DHT22;10600;53.096;8.802;2023-04-01T03:31:45;10.20;99.90
20881;DHT22;10600;53.096;8.802;2023-04-01T03:32:45;10.20;99.90
20881;DHT22;10600;53.096;8.802;2023-04-01T03:33:46;10.10;99.90
20881;DHT22;10600;53.096;8.802;2023-04-01T03:34:47;10.10;99.90
20881;DHT22;10600;53.096;8.802;2023-04-01T03:35:47;10.10;99.90
20881;DHT22;10600;53.096;8.802;2023-04-01T03:36:48;10.10;99.90
20881;DHT22;10600;53.096;8.802;2023-04-01T03:37:50;10.10;99.90
20881;DHT22;10600;53.096;8.802;2023-04-01T03:38:51;10.10;99.90
20881;DHT22;10600;53.096;8.802;2023-04-01T03:39:52;10.10;99.90
20881;DHT22;10600;53.096;8.802;2023-04-01T03:40:53;10.10;99.90
20881;DHT22;10600;53.096;8.802;2023-04-01T03:41:53;10.10;99.90
20881;DHT22;10600;53.096;8.802;2023-04-01T03:42:54;10.10;99.90
20881;DHT22;10600;53.096;8.802;2023-04-01T03:43:56;10.10;99.90
20881;DHT22;10600;53.096;8.802;2023-04-01T03:44:56;10.10;99.90
20881;DHT22;10600;53.096;8.802;2023-04-01T03:45:57;10.10;99.90
20881;DHT22;10600;53.096;8.802;2023-04-01T03:46:58;10.10;99.90
20881;DHT22;10600;53.096;8.802;2023-04-01T03:47:59;10.10;99.90
20881;DHT22;10600;53.096;8.802;2023-04-01T03:49:00;10.10;99.90
20881;DHT22;10600;53.096;8.802;2023-04-01T03:50:01;10.10;99.90
20881;DHT22;10600;53.096;8.802;2023-04-01T03:51:06;10.10;99.90
20881;DHT22;10600;53.096;8.802;2023-04-01T03:52:10;10.10;99.90
20881;DHT22;10600;53.096;8.802;2023-04-01T03:53:11;10.10;99.90
20881;DHT22;10600;53.096;8.802;2023-04-01T03:54:12;10.10;99.90
20881;DHT22;10600;53.096;8.802;2023-04-01T03:55:12;10.10;99.90
20881;DHT22;10600;53.096;8.802;2023-04-01T03:56:13;10.10;99.90
20881;DHT22;10600;53.096;8.802;2023-04-01T03:57:13;10.10;99.90
20881;DHT22;10600;53.096;8.802;2023-04-01T03:58:14;10.10;99.90
20881;DHT22;10600;53.096;8.802;2023-04-01T03:59:15;10.10;99.90
20881;DHT22;10600;53.096;8.802;2023-04-01T04:00:16;10.10;99.90
20881;DHT22;10600;53.096;8.802;2023-04-01T04:01:19;10.10;99.90
20881;DHT22;10600;53.096;8.802;2023-04-01T04:02:23;10.10;99.90
20881;DHT22;10600;53.096;8.802;2023-04-01T04:03:24;10.10;99.90
20881;DHT22;10600;53.096;8.802;2023-04-01T04:04:25;10.10;99.90
20881;DHT22;10600;53.096;8.802;2023-04-01T04:05:27;10.10;99.90
20881;DHT22;10600;53.096;8.802;2023-04-01T04:06:28;10.10;99.90
20881;DHT22;10600;53.096;8.802;2023-04-01T04:07:28;10.10;99.90
20881;DHT22;10600;53.096;8.802;2023-04-01T04:08:29;10.10;99.90
20881;DHT22;10600;53.096;8.802;2023-04-01T04:09:31;10.10;99.90
20881;DHT22;10600;53.096;8.802;2023-04-01T04:10:31;10.00;99.90
20881;DHT22;10600;53.096;8.802;2023-04-01T04:11:32;10.10;99.90
20881;DHT22;10600;53.096;8.802;2023-04-01T04:12:35;10.10;99.90
20881;DHT22;10600;53.096;8.802;2023-04-01T04:13:36;10.00;99.90
20881;DHT22;10600;53.096;8.802;2023-04-01T04:14:37;10.10;99.90
20881;DHT22;10600;53.096;8.802;2023-04-01T04:15:38;10.10;99.90
20881;DHT22;10600;53.096;8.802;2023-04-01T04:16:39;10.10;99.90
20881;DHT22;10600;53.096;8.802;2023-04-01T04:17:39;10.00;99.90
20881;DHT22;10600;53.096;8.802;2023-04-01T04:18:40;10.10;99.90
20881;DHT22;10600;53.096;8.802;2023-04-01T04:19:41;10.10;99.90
20881;DHT22;10600;53.096;8.802;2023-04-01T04:20:45;10.00;99.90
20881;DHT22;10600;53.096;8.802;2023-04-01T04:21:51;10.00;99.90
20881;DHT22;10600;53.096;8.802;2023-04-01T04:22:52;10.00;99.90
20881;DHT22;10600;53.096;8.802;2023-04-01T04:23:52;10.00;99.90
20881;DHT22;10600;53.096;8.802;2023-04-01T04:24:53;10.00;99.90
20881;DHT22;10600;53.096;8.802;2023-04-01T04:25:58;10.00;99.90
20881;DHT22;10600;53.096;8.802;2023-04-01T04:26:59;10.10;99.90
20881;DHT22;10600;53.096;8.802;2023-04-01T04:27:59;10.00;99.90
20881;DHT22;10600;53.096;8.802;2023-04-01T04:29:00;10.00;99.90
20881;DHT22;10600;53.096;8.802;2023-04-01T04:30:01;10.00;99.90
20881;DHT22;10600;53.096;8.802;2023-04-01T04:31:03;10.00;99.90
20881;DHT22;10600;53.096;8.802;2023-04-01T04:32:05;10.00;99.90
20881;DHT22;10600;53.096;8.802;2023-04-01T04:33:06;10.00;99.90
20881;DHT22;10600;53.096;8.802;2023-04-01T04:34:06;10.00;99.90
20881;DHT22;10600;53.096;8.802;2023-04-01T04:35:07;10.00;99.90
20881;DHT22;10600;53.096;8.802;2023-04-01T04:36:08;10.00;99.90
20881;DHT22;10600;53.096;8.802;2023-04-01T04:37:09;10.00;99.90
20881;DHT22;10600;53.096;8.802;2023-04-01T04:38:10;10.00;99.90
20881;DHT22;10600;53.096;8.802;2023-04-01T04:39:10;10.00;99.90
20881;DHT22;10600;53.096;8.802;2023-04-01T04:40:11;10.00;99.90
20881;DHT22;10600;53.096;8.802;2023-04-01T04:41:16;10.00;99.90
20881;DHT22;10600;53.096;8.802;2023-04-01T04:42:18;10.00;99.90
20881;DHT22;10600;53.096;8.802;2023-04-01T04:43:18;10.00;99.90
20881;DHT22;10600;53.096;8.802;2023-04-01T04:44:19;10.00;99.90
20881;DHT22;10600;53.096;8.802;2023-04-01T04:45:20;10.00;99.90
20881;DHT22;10600;53.096;8.802;2023-04-01T04:46:21;10.00;99.90
20881;DHT22;10600;53.096;8.802;2023-04-01T04:47:22;10.00;99.90
20881;DHT22;10600;53.096;8.802;2023-04-01T04:48:23;10.00;99.90
20881;DHT22;10600;53.096;8.802;2023-04-01T04:49:23;10.00;99.90
20881;DHT22;10600;53.096;8.802;2023-04-01T04:50:24;10.00;99.90
20881;DHT22;10600;53.096;8.802;2023-04-01T04:51:25;10.00;99.90
20881;DHT22;10600;53.096;8.802;2023-04-01T04:52:26;10.00;99.90
20881;DHT22;10600;53.096;8.802;2023-04-01T04:53:27;10.00;99.90
20881;DHT22;10600;53.096;8.802;2023-04-01T04:54:27;10.00;99.90
20881;DHT22;10600;53.096;8.802;2023-04-01T04:55:28;10.00;99.90
20881;DHT22;10600;53.096;8.802;2023-04-01T04:56:29;10.00;99.90
20881;DHT22;10600;53.096;8.802;2023-04-01T04:57:31;10.00;99.90
20881;DHT22;10600;53.096;8.802;2023-04-01T04:58:32;10.00;99.90
20881;DHT22;10600;53.096;8.802;2023-04-01T04:59:32;10.00;99.90
20881;DHT22;10600;53.096;8.802;2023-04-01T05:00:33;10.00;99.90
20881;DHT22;10600;53.096;8.802;2023-04-01T05:01:33;10.00;99.90
20881;DHT22;10600;53.096;8.802;2023-04-01T05:02:34;10.00;99.90
20881;DHT22;10600;53.096;8.802;2023-04-01T05:03:36;9.90;99.90
20881;DHT22;10600;53.096;8.802;2023-04-01T05:04:36;10.00;99.90
20881;DHT22;10600;53.096;8.802;2023-04-01T05:05:37;9.90;99.90
20881;DHT22;10600;53.096;8.802;2023-04-01T05:06:38;9.90;99.90
20881;DHT22;10600;53.096;8.802;2023-04-01T05:07:39;9.90;99.90
20881;DHT22;10600;53.096;8.802;2023-04-01T05:08:41;9.90;99.90
20881;DHT22;10600;53.096;8.802;2023-04-01T05:09:42;9.90;99.90
20881;DHT22;10600;53.096;8.802;2023-04-01T05:10:42;10.00;99.90
20881;DHT22;10600;53.096;8.802;2023-04-01T05:11:43;9.90;99.90
20881;DHT22;10600;53.096;8.802;2023-04-01T05:12:43;10.00;99.90
20881;DHT22;10600;53.096;8.802;2023-04-01T05:13:45;10.00;99.90
20881;DHT22;10600;53.096;8.802;2023-04-01T05:14:46;9.90;99.90
20881;DHT22;10600;53.096;8.802;2023-04-01T05:15:47;10.00;99.90
20881;DHT22;10600;53.096;8.802;2023-04-01T05:16:47;10.00;99.90
20881;DHT22;10600;53.096;8.802;2023-04-01T05:17:50;10.00;99.90
20881;DHT22;10600;53.096;8.802;2023-04-01T05:18:50;10.00;99.90
20881;DHT22;10600;53.096;8.802;2023-04-01T05:19:51;10.00;99.90
20881;DHT22;10600;53.096;8.802;2023-04-01T05:20:53;10.00;99.90
20881;DHT22;10600;53.096;8.802;2023-04-01T05:21:54;10.00;99.90
20881;DHT22;10600;53.096;8.802;2023-04-01T05:22:58;10.00;99.90
20881;DHT22;10600;53.096;8.802;2023-04-01T05:23:59;10.00;99.90
20881;DHT22;10600;53.096;8.802;2023-04-01T05:25:00;10.10;99.90
20881;DHT22;10600;53.096;8.802;2023-04-01T05:26:09;10.10;99.90
20881;DHT22;10600;53.096;8.802;2023-04-01T05:27:10;10.10;99.90
20881;DHT22;10600;53.096;8.802;2023-04-01T05:28:11;10.10;99.90
20881;DHT22;10600;53.096;8.802;2023-04-01T05:29:12;10.10;99.90
20881;DHT22;10600;53.096;8.802;2023-04-01T05:30:12;10.10;99.90
20881;DHT22;10600;53.096;8.802;2023-04-01T05:31:13;10.10;99.90
20881;DHT22;10600;53.096;8.802;2023-04-01T05:32:14;10.10;99.90
20881;DHT22;10600;53.096;8.802;2023-04-01T05:33:15;10.10;99.90
20881;DHT22;10600;53.096;8.802;2023-04-01T05:34:16;10.10;99.90
20881;DHT22;10600;53.096;8.802;2023-04-01T05:35:17;10.10;99.90
20881;DHT22;10600;53.096;8.802;2023-04-01T05:36:17;10.10;99.90
20881;DHT22;10600;53.096;8.802;2023-04-01T05:37:18;10.10;99.90
20881;DHT22;10600;53.096;8.802;2023-04-01T05:38:19;10.10;99.90
20881;DHT22;10600;53.096;8.802;2023-04-01T05:39:20;10.10;99.90
20881;DHT22;10600;53.096;8.802;2023-04-01T05:40:20;10.10;99.90
20881;DHT22;10600;53.096;8.802;2023-04-01T05:41:21;10.10;99.90
20881;DHT22;10600;53.096;8.802;2023-04-01T05:42:22;10.10;99.90
20881;DHT22;10600;53.096;8.802;2023-04-01T05:43:23;10.10;99.90
20881;DHT22;10600;53.096;8.802;2023-04-01T05:44:24;10.10;99.90
20881;DHT22;10600;53.096;8.802;2023-04-01T05:45:25;10.10;99.90
20881;DHT22;10600;53.096;8.802;2023-04-01T05:46:25;10.10;99.90
20881;DHT22;10600;53.096;8.802;2023-04-01T05:47:26;10.10;99.90
20881;DHT22;10600;53.096;8.802;2023-04-01T05:48:26;10.10;99.90
20881;DHT22;10600;53.096;8.802;2023-04-01T05:49:27;10.10;99.90
20881;DHT22;10600;53.096;8.802;2023-04-01T05:50:28;10.10;99.90
20881;DHT22;10600;53.096;8.802;2023-04-01T05:51:28;10.10;99.90
20881;DHT22;10600;53.096;8.802;2023-04-01T05:52:29;10.00;99.90
20881;DHT22;10600;53.096;8.802;2023-04-01T05:53:30;10.00;99.90
20881;DHT22;10600;53.096;8.802;2023-04-01T05:54:31;10.00;99.90
20881;DHT22;10600;53.096;8.802;2023-04-01T05:55:31;10.10;99.90
20881;DHT22;10600;53.096;8.802;2023-04-01T05:56:32;10.00;99.90
20881;DHT22;10600;53.096;8.802;2023-04-01T05:57:32;10.00;99.90
20881;DHT22;10600;53.096;8.802;2023-04-01T05:58:33;10.10;99.90
20881;DHT22;10600;53.096;8.802;2023-04-01T05:59:34;10.10;99.90
20881;DHT22;10600;53.096;8.802;2023-04-01T06:00:35;10.10;99.90
20881;DHT22;10600;53.096;8.802;2023-04-01T06:01:35;10.10;99.90
20881;DHT22;10600;53.096;8.802;2023-04-01T06:02:36;10.10;99.90
20881;DHT22;10600;53.096;8.802;2023-04-01T06:03:37;10.10;99.90
20881;DHT22;10600;53.096;8.802;2023-04-01T06:04:39;10.10;99.90
20881;DHT22;10600;53.096;8.802;2023-04-01T06:05:42;10.10;99.90
20881;DHT22;10600;53.096;8.802;2023-04-01T06:06:44;10.10;99.90
20881;DHT22;10600;53.096;8.802;2023-04-01T06:07:44;10.20;99.90
20881;DHT22;10600;53.096;8.802;2023-04-01T06:08:45;10.20;99.90
20881;DHT22;10600;53.096;8.802;2023-04-01T06:09:46;10.20;99.90
20881;DHT22;10600;53.096;8.802;2023-04-01T06:18:59;10.20;99.90
20881;DHT22;10600;53.096;8.802;2023-04-01T06:20:12;10.20;99.90
20881;DHT22;10600;53.096;8.802;2023-04-01T06:29:40;10.20;99.90
20881;DHT22;10600;53.096;8.802;2023-04-01T06:30:52;10.20;99.90
20881;DHT22;10600;53.096;8.802;2023-04-01T06:33:20;10.30;99.90
20881;DHT22;10600;53.096;8.802;2023-04-01T06:41:14;10.30;99.90
20881;DHT22;10600;53.096;8.802;2023-04-01T06:42:21;10.40;99.90
20881;DHT22;10600;53.096;8.802;2023-04-01T06:43:43;10.40;99.90
20881;DHT22;10600;53.096;8.802;2023-04-01T06:45:13;10.40;99.90
20881;DHT22;10600;53.096;8.802;2023-04-01T06:46:38;10.40;99.90
20881;DHT22;10600;53.096;8.802;2023-04-01T06:49:21;10.40;99.90
20881;DHT22;10600;53.096;8.802;2023-04-01T06:51:48;10.40;99.90
20881;DHT22;10600;53.096;8.802;2023-04-01T06:54:11;10.40;99.90
20881;DHT22;10600;53.096;8.802;2023-04-01T06:56:29;10.40;99.90
20881;DHT22;10600;53.096;8.802;2023-04-01T06:57:34;10.50;99.90
20881;DHT22;10600;53.096;8.802;2023-04-01T06:58:44;10.50;99.90
20881;DHT22;10600;53.096;8.802;2023-04-01T06:59:47;10.50;99.90
20881;DHT22;10600;53.096;8.802;2023-04-01T07:00:51;10.50;99.90
20881;DHT22;10600;53.096;8.802;2023-04-01T07:02:04;10.50;99.90
20881;DHT22;10600;53.096;8.802;2023-04-01T07:03:35;10.50;99.90
20881;DHT22;10600;53.096;8.802;2023-04-01T07:04:44;10.50;99.90
20881;DHT22;10600;53.096;8.802;2023-04-01T07:05:47;10.50;99.90
20881;DHT22;10600;53.096;8.802;2023-04-01T07:07:12;10.50;99.90
20881;DHT22;10600;53.096;8.802;2023-04-01T07:08:22;10.50;99.90
20881;DHT22;10600;53.096;8.802;2023-04-01T07:09:37;10.50;99.90
20881;DHT22;10600;53.096;8.802;2023-04-01T07:10:54;10.50;99.90
20881;DHT22;10600;53.096;8.802;2023-04-01T07:12:01;10.50;99.90
20881;DHT22;10600;53.096;8.802;2023-04-01T07:13:09;10.60;99.90
20881;DHT22;10600;53.096;8.802;2023-04-01T07:14:19;10.50;99.90
20881;DHT22;10600;53.096;8.802;2023-04-01T07:15:26;10.60;99.90
20881;DHT22;10600;53.096;8.802;2023-04-01T07:18:28;10.60;99.90
20881;DHT22;10600;53.096;8.802;2023-04-01T07:19:47;10.50;99.90
20881;DHT22;10600;53.096;8.802;2023-04-01T07:20:49;10.50;99.90
20881;DHT22;10600;53.096;8.802;2023-04-01T07:21:56;10.50;99.90
20881;DHT22;10600;53.096;8.802;2023-04-01T07:23:00;10.60;99.90
20881;DHT22;10600;53.096;8.802;2023-04-01T07:24:11;10.60;99.90
20881;DHT22;10600;53.096;8.802;2023-04-01T07:25:19;10.60;99.90
20881;DHT22;10600;53.096;8.802;2023-04-01T07:26:23;10.60;99.90
20881;DHT22;10600;53.096;8.802;2023-04-01T07:27:24;10.70;99.90